createdAt,value
2018-08-03T00:02:01.555Z,79.42
2018-08-03T00:12:01.688Z,79.80
2018-08-03T00:22:01.591Z,79.13
2018-08-03T00:32:01.592Z,79.73
2018-08-03T00:42:01.726Z,80.03
2018-08-03T00:52:01.657Z,79.51
2018-08-03T01:02:01.679Z,79.82
2018-08-03T01:12:01.675Z,81.90
2018-08-03T01:27:01.736Z,81.84
2018-08-03T01:42:01.598Z,82.13
2018-08-03T01:47:01.519Z,82.13
2018-08-03T02:02:01.625Z,79.99
2018-08-03T02:07:01.597Z,79.99
2018-08-03T02:17:01.353Z,81.13
2018-08-03T02:22:01.710Z,81.74
2018-08-03T02:32:01.395Z,81.23
2018-08-03T02:47:01.525Z,82.06
2018-08-03T03:02:01.545Z,82.10
2018-08-03T03:12:01.541Z,82.02
2018-08-03T03:22:01.540Z,82.16
2018-08-03T03:37:06.535Z,81.03
2018-08-03T03:47:06.569Z,80.78
2018-08-03T03:57:01.560Z,82.36
2018-08-03T04:12:01.526Z,82.53
2018-08-03T04:22:01.527Z,82.53
2018-08-03T04:32:01.592Z,82.52
2018-08-03T04:37:01.544Z,82.52
2018-08-03T04:42:01.628Z,82.88
2018-08-03T04:52:01.540Z,82.97
2018-08-03T04:57:01.554Z,82.97
2018-08-03T05:02:01.530Z,83.50
2018-08-03T05:07:01.553Z,83.50
2018-08-03T05:12:01.371Z,82.92
2018-08-03T05:17:01.537Z,82.92
2018-08-03T05:22:01.540Z,81.56
2018-08-03T05:27:01.539Z,81.56
2018-08-03T05:32:01.552Z,80.67
2018-08-03T05:37:01.554Z,80.67
2018-08-03T05:42:01.534Z,79.66
2018-08-03T05:47:01.592Z,79.66
2018-08-03T05:52:01.545Z,78.25
2018-08-03T05:57:01.563Z,78.25
2018-08-03T06:02:01.529Z,76.27
2018-08-03T06:07:01.508Z,76.27
2018-08-03T06:12:01.669Z,73.69
2018-08-03T06:17:01.538Z,73.69
2018-08-03T06:22:01.619Z,72.22
2018-08-03T06:27:01.555Z,72.22
2018-08-03T06:32:01.546Z,71.42
2018-08-03T06:37:01.619Z,71.42
2018-08-03T06:42:01.621Z,67.16
2018-08-03T06:47:01.546Z,67.16
2018-08-03T06:52:01.618Z,66.17
2018-08-03T06:57:01.636Z,66.17
2018-08-03T07:02:01.560Z,68.21
2018-08-03T07:07:01.546Z,68.21
2018-08-03T07:12:01.624Z,64.46
2018-08-03T07:17:01.504Z,64.46
2018-08-03T07:22:01.579Z,60.06
2018-08-03T07:27:01.606Z,60.06
2018-08-03T07:32:01.553Z,56.50
2018-08-03T07:37:01.847Z,56.50
2018-08-03T07:42:01.612Z,57.27
2018-08-03T07:47:01.553Z,57.27
2018-08-03T07:52:01.629Z,52.33
2018-08-03T07:57:01.666Z,52.33
2018-08-03T08:02:01.626Z,51.50
2018-08-03T08:07:01.603Z,51.50
2018-08-03T08:12:01.624Z,49.45
2018-08-03T08:17:01.882Z,49.45
2018-08-03T08:22:01.751Z,47.08
2018-08-03T08:27:01.613Z,47.08
2018-08-03T08:32:01.613Z,47.31
2018-08-03T08:42:01.613Z,47.83
2018-08-03T08:47:01.548Z,47.83
2018-08-03T08:52:01.607Z,47.56
2018-08-03T08:57:01.569Z,47.56
2018-08-03T09:02:01.575Z,46.61
2018-08-03T09:07:01.544Z,46.61
2018-08-03T09:12:01.604Z,45.90
2018-08-03T09:17:01.551Z,45.90
2018-08-03T09:22:01.850Z,44.63
2018-08-03T09:32:01.388Z,44.71
2018-08-03T09:37:01.540Z,44.71
2018-08-03T09:42:01.658Z,44.53
2018-08-03T09:47:01.548Z,44.53
2018-08-03T09:52:01.664Z,43.78
2018-08-03T09:57:01.653Z,43.78
2018-08-03T10:02:01.536Z,43.72
2018-08-03T10:07:01.612Z,43.72
2018-08-03T10:12:01.632Z,43.05
2018-08-03T10:17:01.548Z,43.05
2018-08-03T10:22:01.630Z,43.28
2018-08-03T10:37:01.664Z,43.08
2018-08-03T10:42:01.654Z,42.14
2018-08-03T10:47:01.730Z,42.14
2018-08-03T10:52:01.601Z,40.59
2018-08-03T10:57:01.616Z,40.59
2018-08-03T11:02:01.542Z,40.88
2018-08-03T11:07:01.544Z,40.88
2018-08-03T11:12:01.677Z,39.57
2018-08-03T11:17:01.523Z,39.57
2018-08-03T11:22:01.634Z,39.25
2018-08-03T11:27:01.531Z,39.25
2018-08-03T11:32:01.596Z,39.70
2018-08-03T11:47:01.394Z,37.34
2018-08-03T11:57:01.634Z,36.90
2018-08-03T12:12:01.591Z,36.30
2018-08-03T12:22:01.608Z,36.46
2018-08-03T12:27:01.521Z,36.46
2018-08-03T12:32:01.547Z,35.66
2018-08-03T12:37:01.726Z,35.66
2018-08-03T12:42:01.621Z,35.86
2018-08-03T12:47:01.532Z,35.86
2018-08-03T12:52:01.613Z,36.01
2018-08-03T12:57:01.555Z,36.01
2018-08-03T13:12:02.630Z,32.40
2018-08-03T13:22:01.606Z,31.55
2018-08-03T13:27:01.534Z,31.55
2018-08-03T13:32:01.567Z,29.96
2018-08-03T13:37:01.536Z,29.96
2018-08-03T13:42:01.615Z,30.65
2018-08-03T13:57:01.659Z,29.65
2018-08-03T14:02:01.530Z,30.25
2018-08-03T14:17:01.351Z,31.18
2018-08-03T14:22:01.682Z,29.18
2018-08-03T14:32:01.388Z,30.93
2018-08-03T14:42:01.727Z,30.24
2018-08-03T14:52:02.704Z,30.14
2018-08-03T15:07:01.562Z,29.64
2018-08-03T15:22:01.599Z,30.05
2018-08-03T15:37:01.585Z,30.72
2018-08-03T15:52:01.759Z,31.51
2018-08-03T16:02:01.400Z,33.72
2018-08-03T16:07:01.581Z,33.72
2018-08-03T16:12:01.603Z,34.21
2018-08-03T16:17:01.573Z,34.21
2018-08-03T16:22:01.776Z,35.41
2018-08-03T16:27:01.739Z,35.41
2018-08-03T16:32:01.689Z,39.63
2018-08-03T16:37:01.741Z,39.63
2018-08-03T16:42:01.678Z,40.68
2018-08-03T16:47:01.693Z,40.68
2018-08-03T16:52:01.685Z,41.90
2018-08-03T16:57:01.692Z,41.90
2018-08-03T17:02:01.702Z,44.32
2018-08-03T17:07:01.687Z,44.32
2018-08-03T17:12:01.707Z,45.85
2018-08-03T17:17:01.707Z,45.85
2018-08-03T17:23:01.670Z,47.55
2018-08-03T17:28:01.944Z,47.55
2018-08-03T17:38:01.683Z,45.88
2018-08-03T17:43:01.735Z,48.37
2018-08-03T17:53:01.700Z,48.41
2018-08-03T18:03:02.041Z,51.04
2018-08-03T18:08:01.525Z,51.04
2018-08-03T18:13:01.656Z,50.95
2018-08-03T18:18:01.697Z,50.95
2018-08-03T18:23:01.733Z,52.05
2018-08-03T18:28:02.049Z,52.05
2018-08-03T18:33:01.749Z,53.22
2018-08-03T18:38:01.703Z,53.22
2018-08-03T18:43:01.703Z,54.94
2018-08-03T18:48:01.707Z,54.94
2018-08-03T18:53:01.731Z,56.86
2018-08-03T18:58:01.698Z,56.86
2018-08-03T19:03:01.733Z,57.34
2018-08-03T19:08:01.505Z,57.34
2018-08-03T19:13:01.677Z,58.59
2018-08-03T19:18:01.730Z,58.59
2018-08-03T19:23:01.684Z,59.98
2018-08-03T19:28:01.677Z,59.98
2018-08-03T19:33:01.682Z,61.51
2018-08-03T19:38:01.742Z,61.51
2018-08-03T19:43:01.684Z,62.63
2018-08-03T19:48:01.680Z,62.63
2018-08-03T19:53:01.794Z,63.90
2018-08-03T19:58:01.678Z,63.90
2018-08-03T20:03:01.675Z,64.75
2018-08-03T20:08:01.759Z,64.75
2018-08-03T20:13:01.678Z,65.74
2018-08-03T20:23:01.681Z,66.68
2018-08-03T20:28:01.676Z,66.68
2018-08-03T20:33:01.698Z,67.32
2018-08-03T20:38:01.692Z,67.32
2018-08-03T20:43:01.578Z,68.42
2018-08-03T20:53:01.722Z,69.29
2018-08-03T20:58:01.508Z,69.29
2018-08-03T21:03:01.597Z,70.16
2018-08-03T21:13:02.618Z,70.98
2018-08-03T21:23:01.733Z,72.03
2018-08-03T21:28:01.536Z,72.03
2018-08-03T21:33:01.592Z,73.21
2018-08-03T21:38:01.597Z,73.21
2018-08-03T21:43:01.598Z,73.75
2018-08-03T21:48:01.601Z,73.75
2018-08-03T21:53:01.688Z,74.07
2018-08-03T22:03:01.674Z,74.80
2018-08-03T22:13:01.607Z,75.92
2018-08-03T22:18:01.610Z,75.92
2018-08-03T22:23:01.595Z,75.96
2018-08-03T22:28:01.538Z,75.96
2018-08-03T22:33:02.183Z,76.98
2018-08-03T22:43:01.661Z,77.12
2018-08-03T22:48:01.542Z,77.12
2018-08-03T22:53:01.651Z,77.70
2018-08-03T23:08:02.055Z,77.07
2018-08-03T23:23:01.608Z,78.17
2018-08-03T23:28:01.540Z,78.17
2018-08-03T23:33:01.596Z,78.43
2018-08-03T23:38:01.559Z,78.43
2018-08-03T23:43:01.687Z,79.89
2018-08-03T23:58:01.685Z,80.38
